Time;durP1;ratioP1;P1;durP2;ratioP2;P2;SDS_P1;SDS_P2;PMS_P1;PMS_P2;Temp;Humidity;BMP_temperature;BMP_pressure;BME280_temperature;BME280_humidity;BME280_pressure;Samples;Min_cycle;Max_cycle;Signal;HPM_P1;HPM_P2
2023/12/27 17:18:17;;;;;;;5.00;1.90;;;;;;;-6.64;100.00;140666.64;103656;1299;557862;-65
2023/12/27 17:21:06;;;;;;;3.40;1.70;;;;;;;-6.71;100.00;140649.34;106453;1269;25364;-64
2023/12/27 17:23:52;;;;;;;6.00;1.90;;;;;;;-6.76;100.00;140638.22;106457;1274;25537;-63
2023/12/27 17:26:37;;;;;;;4.70;1.90;;;;;;;-6.80;100.00;140629.09;106336;1270;25370;-62
2023/12/27 17:29:23;;;;;;;4.80;1.80;;;;;;;-6.85;100.00;140616.98;106400;1267;25354;-62
2023/12/27 17:32:08;;;;;;;3.50;1.70;;;;;;;-6.90;100.00;140605.38;106451;1276;122464;-62
2023/12/27 17:34:55;;;;;;;6.00;2.10;;;;;;;-6.93;100.00;140595.50;106523;1280;25414;-61
2023/12/27 17:37:41;;;;;;;6.70;2.00;;;;;;;-6.97;100.00;140587.34;106526;1276;25835;-64
2023/12/27 17:40:27;;;;;;;7.30;2.50;;;;;;;-7.00;100.00;140579.92;106390;1276;26639;-60
2023/12/27 17:43:14;;;;;;;5.50;2.20;;;;;;;-7.05;100.00;140569.80;106437;1273;25338;-62
2023/12/27 17:46:00;;;;;;;5.00;2.00;;;;;;;-7.08;100.00;140561.42;106488;1280;25378;-62
2023/12/27 17:48:46;;;;;;;5.50;2.00;;;;;;;-7.10;100.00;140556.45;106474;1267;25357;-63
2023/12/27 17:51:32;;;;;;;5.70;2.20;;;;;;;-7.11;100.00;140554.75;107160;1257;25390;-64
2023/12/27 17:54:19;;;;;;;5.30;2.20;;;;;;;-7.13;100.00;140548.08;107151;1257;25331;-61
2023/12/27 17:57:04;;;;;;;5.80;2.70;;;;;;;-7.16;100.00;140541.16;107325;1266;22527;-64
2023/12/27 17:59:51;;;;;;;6.10;2.60;;;;;;;-7.20;100.00;140532.28;107144;1273;25330;-63
2023/12/27 18:02:37;;;;;;;8.60;2.30;;;;;;;-7.23;100.00;140525.84;107157;1267;25411;-62
2023/12/27 18:05:26;;;;;;;5.30;2.40;;;;;;;-7.26;100.00;140518.94;107179;1266;25369;-61
2023/12/27 18:08:12;;;;;;;4.20;2.00;;;;;;;-7.27;100.00;140516.72;107076;1257;25478;-63
2023/12/27 18:10:58;;;;;;;6.70;2.20;;;;;;;-7.27;100.00;140515.47;107150;1254;26506;-62
2023/12/27 18:13:44;;;;;;;3.80;1.80;;;;;;;-7.29;100.00;140509.80;107293;1261;26591;-59
2023/12/27 18:16:30;;;;;;;4.30;2.00;;;;;;;-7.34;100.00;140499.67;107218;1257;25324;-60
2023/12/27 18:19:16;;;;;;;8.00;2.70;;;;;;;-7.36;100.00;140494.00;107088;1254;25446;-66
2023/12/27 18:22:02;;;;;;;5.80;2.60;;;;;;;-7.36;100.00;140492.77;107102;1256;25487;-63
2023/12/27 18:24:48;;;;;;;6.80;2.90;;;;;;;-7.36;100.00;140493.02;107160;1267;26621;-61
2023/12/27 18:27:35;;;;;;;7.20;2.80;;;;;;;-7.37;100.00;140491.30;107130;1257;25347;-63
2023/12/27 18:30:20;;;;;;;6.70;2.90;;;;;;;-7.36;100.00;140494.50;107105;1275;25407;-63
2023/12/27 18:33:06;;;;;;;6.60;3.00;;;;;;;-7.33;100.00;140500.16;107072;1270;25356;-61
2023/12/27 18:35:57;;;;;;;7.50;2.80;;;;;;;-7.32;100.00;140502.89;107178;1255;25360;-61
2023/12/27 18:38:43;;;;;;;7.60;2.90;;;;;;;-7.29;100.00;140510.78;107107;1254;25365;-63
2023/12/27 18:41:30;;;;;;;5.50;2.20;;;;;;;-7.22;100.00;140528.56;107172;1260;25374;-61
2023/12/27 18:44:16;;;;;;;7.10;2.40;;;;;;;-7.12;100.00;140550.28;107080;1257;25322;-60
2023/12/27 18:47:01;;;;;;;8.50;3.00;;;;;;;-7.02;100.00;140575.22;107083;1258;25429;-65
2023/12/27 18:49:47;;;;;;;8.70;2.90;;;;;;;-6.95;100.00;140593.28;107071;1257;25417;-58
2023/12/27 18:52:34;;;;;;;8.00;2.20;;;;;;;-6.90;100.00;140605.13;107132;1261;23289;-59
2023/12/27 18:55:20;;;;;;;7.40;2.70;;;;;;;-6.85;100.00;140616.50;107132;1257;25389;-62
2023/12/27 18:58:07;;;;;;;7.00;2.30;;;;;;;-6.83;100.00;140620.44;107188;1254;25331;-64
2023/12/27 19:00:54;;;;;;;8.00;2.50;;;;;;;-6.82;100.00;140624.41;107090;1258;25397;-64
2023/12/27 19:03:42;;;;;;;8.90;2.90;;;;;;;-6.81;100.00;140625.63;107135;1275;26500;-64
2023/12/27 19:06:28;;;;;;;7.20;2.90;;;;;;;-6.84;100.00;140618.47;107159;1270;24379;-64
2023/12/27 19:09:17;;;;;;;10.70;3.50;;;;;;;-6.88;100.00;140608.59;107084;1254;25385;-65
2023/12/27 19:12:03;;;;;;;9.80;2.90;;;;;;;-6.90;100.00;140605.13;107123;1257;25515;-61
2023/12/27 19:14:48;;;;;;;6.70;2.50;;;;;;;-6.88;100.00;140609.58;107186;1256;25352;-63
2023/12/27 19:17:34;;;;;;;7.60;2.70;;;;;;;-6.88;100.00;140608.83;107164;1257;22524;-64
2023/12/27 19:20:20;;;;;;;6.30;2.50;;;;;;;-6.91;100.00;140602.41;107111;1257;25495;-65
2023/12/27 19:23:06;;;;;;;7.20;2.50;;;;;;;-6.95;100.00;140592.53;107118;1260;25514;-60
2023/12/27 19:25:51;;;;;;;7.70;2.40;;;;;;;-6.99;100.00;140581.66;107186;1254;25331;-62
2023/12/27 19:28:39;;;;;;;7.40;2.60;;;;;;;-7.02;100.00;140574.72;107416;1260;22524;-65
2023/12/27 19:31:25;;;;;;;7.00;2.50;;;;;;;-7.04;100.00;140571.53;107111;1266;25940;-61
2023/12/27 19:34:11;;;;;;;6.70;2.60;;;;;;;-7.03;100.00;140571.78;107395;1260;25470;-63
2023/12/27 19:36:57;;;;;;;5.90;2.80;;;;;;;-7.04;100.00;140569.33;107439;1275;24301;-61
2023/12/27 19:39:43;;;;;;;7.00;3.10;;;;;;;-7.08;100.00;140561.41;108126;1263;25362;-61
2023/12/27 19:42:29;;;;;;;7.20;2.70;;;;;;;-7.11;100.00;140554.00;107394;1254;25328;-61
2023/12/27 19:45:15;;;;;;;6.90;2.80;;;;;;;-7.11;100.00;140552.77;107317;1258;25698;-63
2023/12/27 19:48:01;;;;;;;8.70;3.10;;;;;;;-7.11;100.00;140553.50;107183;1254;24363;-61
2023/12/27 19:50:48;;;;;;;9.60;2.90;;;;;;;-7.12;100.00;140550.53;107213;1257;25772;-62
2023/12/27 19:53:33;;;;;;;7.30;3.20;;;;;;;-7.14;100.00;140545.38;107197;1267;25356;-63
2023/12/27 19:56:21;;;;;;;9.90;2.60;;;;;;;-7.14;100.00;140545.59;107287;1258;25418;-59
2023/12/27 19:59:10;;;;;;;6.50;3.60;;;;;;;-7.11;100.00;140553.50;107114;1257;25365;-60
2023/12/27 20:01:56;;;;;;;9.40;2.80;;;;;;;-7.08;100.00;140559.67;107055;1257;25432;-65
2023/12/27 20:04:42;;;;;;;7.70;3.50;;;;;;;-7.02;100.00;140576.70;107053;1257;25411;-62
2023/12/27 20:07:27;;;;;;;5.90;2.50;;;;;;;-6.95;100.00;140590.56;107169;1275;25353;-60
2023/12/27 20:10:13;;;;;;;7.70;2.90;;;;;;;-6.92;100.00;140599.95;107266;1260;23943;-61
2023/12/27 20:13:03;;;;;;;9.70;3.20;;;;;;;-6.91;100.00;140602.66;107132;1254;25360;-63
2023/12/27 20:15:49;;;;;;;8.10;2.80;;;;;;;-6.90;100.00;140603.89;107190;1254;25487;-59
2023/12/27 20:18:36;;;;;;;8.40;2.90;;;;;;;-6.90;100.00;140603.39;107274;1264;25508;-62
2023/12/27 20:21:22;;;;;;;9.20;3.10;;;;;;;-6.91;100.00;140602.17;107129;1275;25328;-59
2023/12/27 20:24:08;;;;;;;5.80;2.40;;;;;;;-6.88;100.00;140610.06;107110;1260;23233;-62
2023/12/27 20:26:54;;;;;;;8.00;2.60;;;;;;;-6.83;100.00;140621.42;107313;1267;25390;-61
2023/12/27 20:29:40;;;;;;;6.60;2.40;;;;;;;-6.78;100.00;140633.03;107176;1257;23823;-60
2023/12/27 20:32:25;;;;;;;7.70;2.90;;;;;;;-6.73;100.00;140645.39;107351;1264;25449;-62
2023/12/27 20:35:11;;;;;;;5.90;2.90;;;;;;;-6.67;100.00;140661.20;107207;1269;22625;-63
2023/12/27 20:37:57;;;;;;;7.20;2.80;;;;;;;-6.62;100.00;140673.05;107380;1267;25343;-63
2023/12/27 20:40:42;;;;;;;8.90;3.20;;;;;;;-6.58;100.00;140682.42;107122;1260;22534;-58
2023/12/27 20:43:28;;;;;;;8.50;2.60;;;;;;;-6.53;100.00;140692.81;107020;1257;25558;-66
2023/12/27 20:46:14;;;;;;;10.10;2.70;;;;;;;-6.52;100.00;140696.27;107129;1261;25339;-62
2023/12/27 20:49:00;;;;;;;9.70;3.90;;;;;;;-6.49;100.00;140702.47;107364;1257;25490;-63
2023/12/27 20:51:47;;;;;;;5.50;2.40;;;;;;;-6.44;100.00;140714.83;107323;1257;22531;-59
2023/12/27 20:54:36;;;;;;;6.10;2.70;;;;;;;-6.37;100.00;140732.84;107198;1257;25462;-61
2023/12/27 20:57:22;;;;;;;8.70;2.70;;;;;;;-6.32;100.00;140744.45;107036;1267;25360;-62
2023/12/27 21:00:09;;;;;;;8.10;2.60;;;;;;;-6.33;100.00;140742.73;107063;1256;25356;-63
2023/12/27 21:02:55;;;;;;;4.70;2.10;;;;;;;-6.31;100.00;140746.20;107129;1257;25368;-60
2023/12/27 21:05:40;;;;;;;8.00;2.80;;;;;;;-6.29;100.00;140751.14;107308;1273;25180;-64
2023/12/27 21:08:27;;;;;;;8.90;3.20;;;;;;;-6.30;100.00;140749.41;107298;1263;23272;-63
2023/12/27 21:11:13;;;;;;;7.20;2.30;;;;;;;-6.29;100.00;140750.64;107204;1263;24665;-64
2023/12/27 21:13:59;;;;;;;7.60;2.60;;;;;;;-6.27;100.00;140755.84;107182;1263;25478;-63
2023/12/27 21:16:45;;;;;;;5.80;2.80;;;;;;;-6.26;100.00;140760.02;107195;1251;25356;-63
2023/12/27 21:19:31;;;;;;;8.60;2.70;;;;;;;-6.23;100.00;140765.97;107435;1250;25325;-64
2023/12/27 21:22:17;;;;;;;8.60;2.70;;;;;;;-6.21;100.00;140770.42;107230;1273;22516;-63
2023/12/27 21:25:03;;;;;;;8.70;3.00;;;;;;;-6.22;100.00;140768.42;107358;1257;25343;-63
2023/12/27 21:27:49;;;;;;;6.60;2.90;;;;;;;-6.21;100.00;140771.41;107438;1257;25328;-64
2023/12/27 21:30:36;;;;;;;8.60;2.80;;;;;;;-6.21;100.00;140769.91;107240;1269;25459;-63
2023/12/27 21:33:22;;;;;;;5.90;2.30;;;;;;;-6.20;100.00;140774.38;107230;1257;25331;-64
2023/12/27 21:36:08;;;;;;;9.30;2.50;;;;;;;-6.19;100.00;140775.09;107516;1260;25382;-61
2023/12/27 21:38:54;;;;;;;6.20;2.30;;;;;;;-6.16;100.00;140784.00;107272;1260;25347;-63
2023/12/27 21:41:46;;;;;;;8.20;3.00;;;;;;;-6.09;100.00;140801.05;107167;1260;22494;-64
2023/12/27 21:44:33;;;;;;;7.20;2.90;;;;;;;-6.03;100.00;140815.16;107271;1261;25343;-62
2023/12/27 21:47:19;;;;;;;6.60;2.40;;;;;;;-5.96;100.00;140832.20;107226;1264;23301;-61
2023/12/27 21:50:04;;;;;;;6.20;2.70;;;;;;;-5.92;100.00;140842.05;107121;1261;23260;-62
2023/12/27 21:52:50;;;;;;;8.20;2.40;;;;;;;-5.90;100.00;140846.50;107105;1261;25554;-60
2023/12/27 21:55:36;;;;;;;6.60;2.70;;;;;;;-5.93;100.00;140840.33;107169;1263;25402;-64
2023/12/27 21:58:21;;;;;;;7.70;2.50;;;;;;;-5.95;100.00;140833.45;107398;1253;23273;-65
2023/12/27 22:01:08;;;;;;;5.60;2.30;;;;;;;-5.96;100.00;140832.95;107349;1257;25346;-62
2023/12/27 22:03:54;;;;;;;5.20;2.00;;;;;;;-5.98;100.00;140827.50;107178;1261;25382;-64
2023/12/27 22:06:42;;;;;;;5.40;2.50;;;;;;;-5.96;100.00;140831.22;107200;1264;25487;-62
2023/12/27 22:09:28;;;;;;;7.50;3.20;;;;;;;-5.93;100.00;140840.09;107216;1263;23141;-64
2023/12/27 22:12:14;;;;;;;7.80;2.30;;;;;;;-5.89;100.00;140849.45;107129;1263;25375;-62
2023/12/27 22:15:01;;;;;;;7.20;2.40;;;;;;;-5.88;100.00;140851.22;107154;1263;25359;-65
2023/12/27 22:17:46;;;;;;;6.70;2.60;;;;;;;-5.87;100.00;140852.20;107244;1263;23195;-62
2023/12/27 22:20:32;;;;;;;8.20;2.40;;;;;;;-5.91;100.00;140844.53;107155;1263;25386;-65
2023/12/27 22:23:18;;;;;;;6.10;2.50;;;;;;;-5.98;100.00;140827.75;107169;1264;25377;-65
2023/12/27 22:26:03;;;;;;;5.40;2.40;;;;;;;-6.02;100.00;140816.89;107157;1257;25328;-65
2023/12/27 22:28:49;;;;;;;8.70;2.40;;;;;;;-6.01;100.00;140820.34;107111;1263;25400;-64
2023/12/27 22:31:35;;;;;;;6.20;2.80;;;;;;;-6.01;100.00;140818.88;107147;1261;25472;-64
2023/12/27 22:34:21;;;;;;;9.60;2.40;;;;;;;-6.05;100.00;140809.22;107275;1264;25347;-63
2023/12/27 22:37:06;;;;;;;5.40;2.20;;;;;;;-6.04;100.00;140810.70;107191;1261;25344;-64
2023/12/27 22:39:52;;;;;;;6.90;2.40;;;;;;;-6.04;100.00;140811.20;107292;1263;25374;-64
2023/12/27 22:42:38;;;;;;;5.60;2.90;;;;;;;-6.04;100.00;140812.44;107190;1263;25328;-63
2023/12/27 22:45:23;;;;;;;7.80;2.50;;;;;;;-6.05;100.00;140810.22;107237;1263;25478;-64
2023/12/27 22:48:09;;;;;;;12.50;3.20;;;;;;;-6.06;100.00;140807.72;107163;1264;25343;-62
2023/12/27 22:50:55;;;;;;;4.20;2.50;;;;;;;-6.08;100.00;140803.28;107253;1263;22639;-64
2023/12/27 22:53:41;;;;;;;4.90;2.60;;;;;;;-6.09;100.00;140799.33;107346;1260;23817;-64
2023/12/27 22:56:26;;;;;;;9.40;2.40;;;;;;;-6.11;100.00;140795.88;107215;1263;25340;-63
2023/12/27 22:59:12;;;;;;;6.50;2.40;;;;;;;-6.12;100.00;140792.16;107213;1263;25504;-66
2023/12/27 23:01:57;;;;;;;6.70;2.70;;;;;;;-6.15;100.00;140786.47;107244;1270;25328;-62
2023/12/27 23:04:43;;;;;;;8.90;2.40;;;;;;;-6.13;100.00;140790.92;107165;1263;25356;-62
2023/12/27 23:07:31;;;;;;;7.90;2.70;;;;;;;-6.08;100.00;140801.56;107199;1264;25356;-61
2023/12/27 23:10:16;;;;;;;5.60;2.90;;;;;;;-6.03;100.00;140814.91;107233;1251;24247;-62
2023/12/27 23:13:02;;;;;;;7.50;2.70;;;;;;;-6.00;100.00;140821.83;107114;1263;25433;-63
2023/12/27 23:15:47;;;;;;;11.20;2.90;;;;;;;-6.00;100.00;140822.56;107205;1263;23391;-63
2023/12/27 23:18:33;;;;;;;7.00;3.20;;;;;;;-6.00;100.00;140822.81;107346;1253;25417;-63
2023/12/27 23:21:19;;;;;;;6.40;2.50;;;;;;;-6.01;100.00;140819.59;107246;1264;25396;-64
2023/12/27 23:24:04;;;;;;;10.80;3.20;;;;;;;-6.00;100.00;140821.08;107230;1261;25346;-65
2023/12/27 23:26:50;;;;;;;9.70;3.60;;;;;;;-6.01;100.00;140818.61;107143;1263;25439;-62
2023/12/27 23:29:36;;;;;;;6.90;2.70;;;;;;;-6.03;100.00;140814.41;107202;1263;25475;-62
2023/12/27 23:32:22;;;;;;;9.80;3.00;;;;;;;-6.05;100.00;140808.47;107089;1270;25406;-65
2023/12/27 23:35:09;;;;;;;7.70;2.90;;;;;;;-6.05;100.00;140809.22;107159;1263;25469;-62
2023/12/27 23:37:55;;;;;;;9.70;3.40;;;;;;;-6.06;100.00;140806.97;107140;1263;25405;-64
2023/12/27 23:40:41;;;;;;;10.10;3.10;;;;;;;-6.07;100.00;140805.25;107226;1263;25452;-64
2023/12/27 23:43:27;;;;;;;10.20;4.10;;;;;;;-6.07;100.00;140803.78;107254;1261;22523;-65
2023/12/27 23:46:12;;;;;;;9.10;3.50;;;;;;;-6.08;100.00;140802.56;107196;1257;25366;-65
2023/12/27 23:48:58;;;;;;;8.30;3.50;;;;;;;-6.08;100.00;140801.31;107192;1254;25482;-62
2023/12/27 23:51:44;;;;;;;8.80;3.60;;;;;;;-6.09;100.00;140800.31;107090;1263;25515;-60
2023/12/27 23:54:30;;;;;;;9.30;3.70;;;;;;;-6.09;100.00;140798.59;107164;1257;24383;-62
2023/12/27 23:57:16;;;;;;;8.20;3.40;;;;;;;-6.10;100.00;140796.88;107083;1269;25417;-65
